Time;durP1;ratioP1;P1;durP2;ratioP2;P2;SDS_P1;SDS_P2;PMS_P1;PMS_P2;Temp;Humidity;BMP_temperature;BMP_pressure;BME280_temperature;BME280_humidity;BME280_pressure;Samples;Min_cycle;Max_cycle;Signal;HPM_P1;HPM_P2
2022/10/25 00:02:13;;;;;;;1.77;1.67;;;11.50;99.90;;;;;;6155326;23;20433;-85
2022/10/25 00:04:40;;;;;;;1.87;1.73;;;11.40;99.90;;;;;;6155282;23;20405;-84
2022/10/25 00:07:06;;;;;;;1.57;1.47;;;11.30;99.90;;;;;;6154814;23;20511;-84
2022/10/25 00:09:33;;;;;;;2.20;2.00;;;11.30;99.90;;;;;;6154932;23;20414;-84
2022/10/25 00:12:00;;;;;;;2.63;2.43;;;11.40;99.90;;;;;;6155173;23;20414;-87
2022/10/25 00:14:28;;;;;;;2.80;2.10;;;11.40;99.90;;;;;;6154819;23;20410;-87
2022/10/25 00:16:55;;;;;;;4.90;3.00;;;11.50;99.90;;;;;;6154229;23;20787;-87
2022/10/25 00:19:22;;;;;;;5.10;2.87;;;11.50;99.90;;;;;;6167202;23;21006;-87
2022/10/25 00:21:49;;;;;;;2.67;2.30;;;11.40;99.90;;;;;;6155113;23;20805;-87
2022/10/25 00:24:15;;;;;;;1.97;1.87;;;11.40;99.90;;;;;;6155032;23;20431;-86
2022/10/25 00:26:42;;;;;;;2.27;1.40;;;11.40;99.90;;;;;;6154749;23;20429;-87
2022/10/25 00:29:10;;;;;;;2.00;1.90;;;11.40;99.90;;;;;;6154461;23;20717;-86
2022/10/25 00:31:38;;;;;;;2.43;2.13;;;11.40;99.90;;;;;;6154710;23;20753;-85
2022/10/25 00:34:05;;;;;;;2.70;2.23;;;11.40;99.90;;;;;;6154630;23;20417;-86
2022/10/25 00:36:32;;;;;;;2.97;1.90;;;11.40;99.90;;;;;;6154192;23;20453;-87
2022/10/25 00:38:59;;;;;;;3.37;2.37;;;11.30;99.90;;;;;;6154449;23;20429;-87
2022/10/25 00:41:28;;;;;;;1.70;1.60;;;11.30;99.90;;;;;;6154712;23;20417;-87
2022/10/25 00:43:57;;;;;;;3.40;2.10;;;11.30;99.90;;;;;;6154474;23;20505;-86
2022/10/25 00:46:28;;;;;;;2.40;1.77;;;11.30;99.90;;;;;;6154133;23;20424;-86
2022/10/25 00:49:01;;;;;;;1.63;1.53;;;11.30;99.90;;;;;;6154210;23;20394;-87
2022/10/25 00:51:33;;;;;;;2.50;2.30;;;11.30;99.90;;;;;;6154682;23;20397;-87
2022/10/25 00:54:00;;;;;;;2.80;2.60;;;11.20;99.90;;;;;;6154682;23;20735;-84
2022/10/25 00:56:30;;;;;;;3.28;2.20;;;11.20;99.90;;;;;;6154740;23;20259;-84
2022/10/25 00:59:01;;;;;;;3.93;2.10;;;11.20;99.90;;;;;;6154032;23;20174;-84
2022/10/25 01:01:28;;;;;;;2.30;2.10;;;11.20;99.90;;;;;;6154443;23;20695;-84
2022/10/25 01:04:00;;;;;;;2.87;2.17;;;11.10;99.90;;;;;;6154188;23;20752;-84
2022/10/25 01:06:34;;;;;;;4.00;2.67;;;11.10;99.90;;;;;;6155201;23;20556;-84
2022/10/25 01:09:02;;;;;;;2.77;1.77;;;11.10;99.90;;;;;;6154464;23;20864;-85
2022/10/25 01:11:29;;;;;;;2.47;2.30;;;11.20;99.90;;;;;;6160029;23;20412;-84
2022/10/25 01:13:57;;;;;;;2.40;2.20;;;11.10;99.90;;;;;;6165788;23;20277;-84
2022/10/25 01:16:32;;;;;;;2.93;2.73;;;11.20;99.90;;;;;;6156450;23;20577;-85
2022/10/25 01:19:10;;;;;;;5.20;2.10;;;11.20;99.90;;;;;;6156487;23;20403;-85
2022/10/25 01:21:44;;;;;;;2.53;2.33;;;11.30;99.90;;;;;;6156944;23;20402;-85
2022/10/25 01:24:42;;;;;;;4.33;2.60;;;11.20;99.90;;;;;;6156416;23;20471;-84
2022/10/25 01:27:36;;;;;;;2.50;2.30;;;11.30;99.90;;;;;;6156376;23;20426;-85
2022/10/25 01:30:10;;;;;;;2.90;2.60;;;11.30;99.90;;;;;;6155640;23;20409;-85
2022/10/25 01:32:45;;;;;;;2.47;2.27;;;11.30;99.90;;;;;;6161166;23;20405;-84
2022/10/25 01:35:19;;;;;;;4.97;2.20;;;11.20;99.90;;;;;;6163478;23;20397;-85
2022/10/25 01:38:02;;;;;;;5.00;2.20;;;11.20;99.90;;;;;;6156186;23;20432;-85
2022/10/25 01:40:34;;;;;;;3.77;2.43;;;11.30;99.90;;;;;;6156573;23;20413;-85
2022/10/25 01:43:05;;;;;;;2.40;2.30;;;11.30;99.90;;;;;;6166288;23;20405;-83
2022/10/25 01:45:38;;;;;;;3.27;2.40;;;11.30;99.90;;;;;;6181361;23;20398;-85
2022/10/25 01:48:13;;;;;;;5.10;2.67;;;11.30;99.90;;;;;;6155757;23;21103;-85
2022/10/25 01:50:42;;;;;;;4.10;2.57;;;11.30;99.90;;;;;;6155823;23;20381;-85
2022/10/25 01:53:09;;;;;;;3.80;2.70;;;11.20;99.90;;;;;;6155944;23;20413;-85
2022/10/25 01:55:41;;;;;;;2.50;2.30;;;11.20;99.90;;;;;;6156118;23;20412;-85
2022/10/25 01:58:17;;;;;;;3.10;2.80;;;11.20;99.90;;;;;;6156024;23;20494;-85
2022/10/25 02:00:56;;;;;;;2.83;2.37;;;11.20;99.90;;;;;;6155193;23;20441;-86
2022/10/25 02:03:31;;;;;;;2.93;2.27;;;11.30;99.90;;;;;;6156069;23;20404;-86
2022/10/25 02:06:09;;;;;;;3.80;2.57;;;11.20;99.90;;;;;;6169978;23;20381;-85
2022/10/25 02:08:40;;;;;;;3.77;2.40;;;11.20;99.90;;;;;;6155972;23;20397;-85
2022/10/25 02:11:17;;;;;;;5.90;2.33;;;11.20;99.90;;;;;;6156125;23;20398;-85
2022/10/25 02:13:50;;;;;;;4.00;3.03;;;11.20;99.90;;;;;;6155946;23;20397;-85
2022/10/25 02:16:21;;;;;;;3.80;2.60;;;11.30;99.90;;;;;;6155440;23;20437;-87
2022/10/25 02:18:54;;;;;;;3.03;2.37;;;11.20;99.90;;;;;;6155455;23;20393;-86
2022/10/25 02:21:22;;;;;;;4.90;3.43;;;11.20;99.90;;;;;;6155759;23;20728;-86
2022/10/25 02:23:50;;;;;;;2.50;2.30;;;11.20;99.90;;;;;;6155207;23;20415;-86
2022/10/25 02:26:19;;;;;;;4.60;2.93;;;11.20;99.90;;;;;;6155581;23;20411;-86
2022/10/25 02:28:47;;;;;;;4.57;4.20;;;11.30;99.90;;;;;;6154963;23;20436;-86
2022/10/25 02:31:17;;;;;;;2.90;2.70;;;11.20;99.90;;;;;;6154848;23;20424;-86
2022/10/25 02:33:44;;;;;;;2.50;2.30;;;11.20;99.90;;;;;;6155588;23;20409;-86
2022/10/25 02:36:15;;;;;;;5.97;2.50;;;11.30;99.90;;;;;;6155198;23;20452;-87
2022/10/25 02:38:43;;;;;;;4.30;2.77;;;11.30;99.90;;;;;;6155305;23;20880;-86
2022/10/25 02:41:11;;;;;;;2.90;2.70;;;11.30;99.90;;;;;;6154995;23;20414;-86
2022/10/25 02:43:37;;;;;;;3.63;2.97;;;11.30;99.90;;;;;;6155016;23;20929;-86
2022/10/25 02:46:09;;;;;;;5.03;4.53;;;11.30;99.90;;;;;;6155532;23;20418;-86
2022/10/25 02:48:36;;;;;;;4.50;2.67;;;11.30;99.90;;;;;;6155189;23;20414;-86
2022/10/25 02:51:02;;;;;;;3.30;2.43;;;11.30;99.90;;;;;;6155265;23;20467;-87
2022/10/25 02:53:31;;;;;;;3.90;3.37;;;11.30;99.90;;;;;;6155362;23;20405;-87
2022/10/25 02:56:02;;;;;;;3.80;3.50;;;11.20;99.90;;;;;;6155352;23;20567;-86
2022/10/25 02:58:31;;;;;;;5.30;2.40;;;11.20;99.90;;;;;;6157924;23;20433;-85
2022/10/25 03:00:58;;;;;;;6.03;3.40;;;11.40;99.90;;;;;;6165392;23;21056;-86
2022/10/25 03:03:25;;;;;;;3.50;3.20;;;11.30;99.90;;;;;;6155466;23;20416;-86
2022/10/25 03:05:52;;;;;;;3.03;2.70;;;11.40;99.90;;;;;;6155365;23;20420;-86
2022/10/25 03:08:20;;;;;;;2.70;2.50;;;11.40;99.90;;;;;;6155026;23;20786;-86
2022/10/25 03:10:48;;;;;;;2.80;2.60;;;11.20;99.90;;;;;;6155304;23;20473;-87
2022/10/25 03:13:15;;;;;;;4.87;3.63;;;11.20;99.90;;;;;;6155193;23;20417;-86
2022/10/25 03:15:42;;;;;;;3.00;2.80;;;11.20;99.90;;;;;;6155384;23;20413;-86
2022/10/25 03:18:10;;;;;;;2.87;2.60;;;11.20;99.90;;;;;;6154488;23;20449;-86
2022/10/25 03:20:36;;;;;;;3.37;2.90;;;11.10;99.90;;;;;;6155286;23;20405;-86
2022/10/25 03:23:04;;;;;;;4.20;3.03;;;11.20;99.90;;;;;;6155207;23;20893;-86
2022/10/25 03:25:31;;;;;;;2.70;2.50;;;11.20;99.90;;;;;;6154936;23;20417;-86
2022/10/25 03:27:59;;;;;;;4.00;3.30;;;11.30;99.90;;;;;;6154724;23;20755;-86
2022/10/25 03:30:26;;;;;;;4.10;2.43;;;11.30;99.90;;;;;;6154352;23;20425;-86
2022/10/25 03:32:53;;;;;;;4.90;4.40;;;11.20;99.90;;;;;;6153999;23;20414;-86
2022/10/25 03:35:20;;;;;;;3.40;2.50;;;11.20;99.90;;;;;;6155007;23;20418;-86
2022/10/25 03:37:47;;;;;;;5.43;2.80;;;11.30;99.90;;;;;;6154226;23;20456;-86
2022/10/25 03:40:14;;;;;;;3.10;2.90;;;11.20;99.90;;;;;;6155216;23;20423;-85
2022/10/25 03:42:42;;;;;;;7.70;3.07;;;11.20;99.90;;;;;;6155710;23;20409;-86
2022/10/25 03:45:11;;;;;;;3.27;2.80;;;11.20;99.90;;;;;;6172380;23;20460;-83
2022/10/25 03:47:38;;;;;;;4.23;3.93;;;11.20;99.90;;;;;;6171825;23;20533;-89
2022/10/25 03:50:06;;;;;;;2.97;2.70;;;11.20;99.90;;;;;;6155046;23;20414;-86
2022/10/25 03:52:34;;;;;;;5.80;3.23;;;11.20;99.90;;;;;;6162777;23;20460;-85
2022/10/25 03:55:01;;;;;;;3.40;2.73;;;11.20;99.90;;;;;;6158138;23;20413;-86
2022/10/25 03:57:28;;;;;;;3.33;3.07;;;11.20;99.90;;;;;;6154704;23;20457;-86
2022/10/25 03:59:56;;;;;;;3.00;2.80;;;11.20;99.90;;;;;;6165061;23;20423;-85
2022/10/25 04:02:25;;;;;;;6.15;2.70;;;11.20;99.90;;;;;;6161930;23;20516;-87
2022/10/25 04:04:52;;;;;;;3.73;3.10;;;11.20;99.90;;;;;;6155989;23;20522;-86
2022/10/25 04:07:19;;;;;;;3.23;2.90;;;11.20;99.90;;;;;;6158931;23;20940;-86
2022/10/25 04:09:46;;;;;;;2.80;2.60;;;11.20;99.90;;;;;;6157284;23;20400;-86
2022/10/25 04:12:13;;;;;;;3.30;3.00;;;11.20;99.90;;;;;;6155444;23;20410;-86
2022/10/25 04:14:40;;;;;;;3.70;3.03;;;11.20;99.90;;;;;;6154367;23;20413;-86
2022/10/25 04:17:07;;;;;;;3.97;3.10;;;11.10;99.90;;;;;;6154181;23;20453;-86
2022/10/25 04:19:35;;;;;;;3.70;3.40;;;11.20;99.90;;;;;;6154053;23;20419;-86
2022/10/25 04:22:02;;;;;;;3.03;2.73;;;11.10;99.90;;;;;;6154117;23;20421;-86
2022/10/25 04:24:28;;;;;;;3.75;3.30;;;11.20;99.90;;;;;;6154269;23;20409;-86
2022/10/25 04:26:55;;;;;;;4.13;3.47;;;11.20;99.90;;;;;;6153575;23;20200;-86
2022/10/25 04:29:22;;;;;;;6.32;4.60;;;11.10;99.90;;;;;;6154439;23;20422;-86
2022/10/25 04:31:49;;;;;;;4.70;2.97;;;11.20;99.90;;;;;;6154351;23;20184;-86
2022/10/25 04:34:17;;;;;;;5.37;4.93;;;11.00;99.90;;;;;;6154913;23;20439;-86
2022/10/25 04:36:45;;;;;;;5.40;4.70;;;11.10;99.90;;;;;;6154366;23;20979;-86
2022/10/25 04:39:11;;;;;;;4.90;3.07;;;11.20;99.90;;;;;;6154266;23;20760;-86
2022/10/25 04:41:38;;;;;;;4.40;3.30;;;11.10;99.90;;;;;;6154191;23;20418;-85
2022/10/25 04:44:05;;;;;;;3.50;3.20;;;11.10;99.90;;;;;;6153948;23;20405;-86
2022/10/25 04:46:32;;;;;;;2.97;2.77;;;11.00;99.90;;;;;;6155123;23;20445;-84
2022/10/25 04:48:59;;;;;;;3.70;2.93;;;11.00;99.90;;;;;;6156377;23;20402;-86
2022/10/25 04:51:25;;;;;;;4.30;2.90;;;11.10;99.90;;;;;;6156603;23;20419;-86
2022/10/25 04:53:54;;;;;;;6.20;3.40;;;11.10;99.90;;;;;;6155968;23;20419;-85
2022/10/25 04:56:21;;;;;;;3.73;3.00;;;11.10;99.90;;;;;;6156471;23;20413;-86
2022/10/25 04:58:50;;;;;;;3.07;2.87;;;11.10;99.90;;;;;;6155946;23;20418;-85
2022/10/25 05:01:18;;;;;;;3.80;2.37;;;11.10;99.90;;;;;;6156567;23;20444;-86
2022/10/25 05:03:45;;;;;;;4.10;3.07;;;11.00;99.90;;;;;;6156546;23;20418;-86
2022/10/25 05:06:14;;;;;;;3.77;3.30;;;11.00;99.90;;;;;;6156045;23;20413;-86
2022/10/25 05:08:43;;;;;;;3.30;3.10;;;11.00;99.90;;;;;;6156281;23;20405;-86
2022/10/25 05:11:12;;;;;;;3.70;2.90;;;11.00;99.90;;;;;;6157705;23;20425;-86
2022/10/25 05:13:40;;;;;;;4.70;3.20;;;11.00;99.90;;;;;;6156096;23;20397;-86
2022/10/25 05:16:07;;;;;;;4.20;3.50;;;11.00;99.90;;;;;;6155954;23;20930;-85
2022/10/25 05:18:35;;;;;;;4.37;2.77;;;11.00;99.90;;;;;;6155796;23;20504;-86
2022/10/25 05:21:03;;;;;;;4.00;3.20;;;10.90;99.90;;;;;;6156367;23;20420;-85
2022/10/25 05:23:31;;;;;;;3.97;3.57;;;11.00;99.90;;;;;;6155869;23;20240;-86
2022/10/25 05:26:03;;;;;;;3.27;3.07;;;11.00;99.90;;;;;;6156933;23;20417;-86
2022/10/25 05:28:32;;;;;;;6.43;3.93;;;11.00;99.90;;;;;;6155430;23;20441;-86
2022/10/25 05:31:03;;;;;;;4.50;3.77;;;10.90;99.90;;;;;;6156336;23;20413;-86
2022/10/25 05:33:30;;;;;;;4.43;3.20;;;10.90;99.90;;;;;;6156128;23;20747;-86
2022/10/25 05:35:58;;;;;;;5.90;2.80;;;10.90;99.90;;;;;;6156227;23;20183;-86
2022/10/25 05:38:25;;;;;;;7.73;4.53;;;10.80;99.90;;;;;;6155539;23;20448;-86
2022/10/25 05:40:56;;;;;;;3.70;3.33;;;10.80;99.90;;;;;;6156066;23;20420;-86
2022/10/25 05:43:23;;;;;;;4.97;3.50;;;10.80;99.90;;;;;;6156245;23;20412;-86
2022/10/25 05:45:52;;;;;;;5.03;3.63;;;10.80;99.90;;;;;;6163877;23;20408;-82
2022/10/25 05:48:19;;;;;;;3.80;3.50;;;10.80;99.90;;;;;;6160251;23;20561;-82
2022/10/25 05:50:46;;;;;;;4.38;3.97;;;10.80;99.90;;;;;;6158707;23;20435;-82
2022/10/25 05:53:13;;;;;;;3.25;3.05;;;10.70;99.90;;;;;;6159236;23;20217;-81
2022/10/25 05:55:39;;;;;;;3.63;3.10;;;10.70;99.90;;;;;;6159181;23;20180;-81
2022/10/25 05:58:06;;;;;;;5.20;3.83;;;10.70;99.90;;;;;;6157566;23;20945;-81
2022/10/25 06:00:33;;;;;;;4.10;3.63;;;10.70;99.90;;;;;;6158307;23;20181;-81
2022/10/25 06:03:02;;;;;;;5.63;4.20;;;10.70;99.90;;;;;;6159597;23;20409;-84
2022/10/25 06:05:29;;;;;;;8.53;3.57;;;10.80;99.90;;;;;;6159153;23;20423;-81
2022/10/25 06:07:55;;;;;;;3.67;3.13;;;10.80;99.90;;;;;;6157751;23;20448;-81
2022/10/25 06:10:22;;;;;;;7.90;3.40;;;10.80;99.90;;;;;;6157227;23;20425;-81
2022/10/25 06:12:49;;;;;;;3.87;3.40;;;10.70;99.90;;;;;;6157964;23;20409;-81
2022/10/25 06:15:16;;;;;;;4.90;4.40;;;10.80;99.90;;;;;;6157536;23;20421;-82
2022/10/25 06:17:42;;;;;;;4.80;3.90;;;10.80;99.90;;;;;;6158448;23;20450;-83
2022/10/25 06:20:11;;;;;;;5.67;3.93;;;10.80;99.90;;;;;;6158434;23;20936;-82
2022/10/25 06:22:37;;;;;;;3.83;3.60;;;10.80;99.90;;;;;;6158788;23;20411;-82
2022/10/25 06:25:05;;;;;;;6.20;5.00;;;10.80;99.90;;;;;;6157739;23;20425;-82
2022/10/25 06:27:32;;;;;;;5.00;4.10;;;10.90;99.90;;;;;;6156253;23;20429;-82
2022/10/25 06:29:59;;;;;;;4.70;4.30;;;10.90;99.90;;;;;;6157226;23;20397;-83
2022/10/25 06:32:25;;;;;;;6.07;3.90;;;10.90;99.90;;;;;;6156332;23;20408;-82
2022/10/25 06:34:52;;;;;;;3.75;3.55;;;11.00;99.90;;;;;;6156440;23;20417;-82
2022/10/25 06:37:20;;;;;;;4.10;3.30;;;10.90;99.90;;;;;;6159062;23;20206;-82
2022/10/25 06:39:47;;;;;;;4.10;3.80;;;11.00;99.90;;;;;;6159058;23;20422;-83
2022/10/25 06:42:14;;;;;;;5.00;3.60;;;11.00;99.90;;;;;;6163759;23;20416;-84
2022/10/25 06:44:40;;;;;;;4.53;3.30;;;11.00;99.90;;;;;;6163130;23;20495;-84
2022/10/25 06:47:07;;;;;;;4.07;2.80;;;11.00;99.90;;;;;;6118394;23;1064057;-84
2022/10/25 06:49:34;;;;;;;7.00;3.55;;;11.10;99.90;;;;;;6139969;23;20491;-84
2022/10/25 06:52:00;;;;;;;5.07;4.65;;;11.10;99.90;;;;;;6139762;23;20192;-85
2022/10/25 06:54:29;;;;;;;3.20;2.90;;;11.20;99.90;;;;;;6140287;23;20181;-84
2022/10/25 06:56:55;;;;;;;3.33;3.13;;;11.20;99.90;;;;;;6136010;23;20437;-84
2022/10/25 06:59:22;;;;;;;7.10;4.57;;;11.20;99.90;;;;;;6131943;23;20428;-84
2022/10/25 07:01:49;;;;;;;4.73;2.90;;;11.20;99.90;;;;;;6132562;23;20485;-83
2022/10/25 07:04:16;;;;;;;4.37;3.87;;;11.30;99.90;;;;;;6132049;23;20929;-83
2022/10/25 07:06:42;;;;;;;3.50;3.20;;;11.40;99.90;;;;;;6132857;23;20435;-83
2022/10/25 07:09:11;;;;;;;3.37;2.97;;;11.50;99.90;;;;;;6132187;23;20408;-83
2022/10/25 07:11:39;;;;;;;4.70;3.40;;;11.50;99.90;;;;;;6132285;23;20426;-83
2022/10/25 07:14:06;;;;;;;3.07;2.87;;;11.50;99.90;;;;;;6131706;23;20414;-83
2022/10/25 07:16:33;;;;;;;3.20;2.95;;;11.60;99.90;;;;;;6132676;23;20416;-83
2022/10/25 07:19:01;;;;;;;2.67;2.03;;;11.70;99.90;;;;;;6132387;23;20213;-83
2022/10/25 07:21:29;;;;;;;4.07;2.17;;;11.70;99.90;;;;;;6133243;23;20418;-83
2022/10/25 07:23:56;;;;;;;3.93;2.70;;;11.80;99.90;;;;;;6132968;23;20422;-83
2022/10/25 07:26:24;;;;;;;2.80;2.60;;;11.70;99.90;;;;;;6143604;23;20406;-82
2022/10/25 07:28:55;;;;;;;2.70;2.30;;;11.80;99.90;;;;;;6148705;23;20410;-82
2022/10/25 07:31:24;;;;;;;2.50;2.40;;;11.80;99.90;;;;;;6135788;23;20740;-83
2022/10/25 07:33:52;;;;;;;3.03;2.63;;;11.90;99.90;;;;;;6133031;23;20419;-83
2022/10/25 07:36:19;;;;;;;2.60;2.50;;;12.00;99.90;;;;;;6133247;23;20415;-83
2022/10/25 07:38:46;;;;;;;2.57;2.37;;;12.10;99.90;;;;;;6131737;23;20436;-83
2022/10/25 07:41:13;;;;;;;2.47;2.27;;;12.10;99.90;;;;;;6132598;23;20415;-83
2022/10/25 07:43:39;;;;;;;2.97;2.70;;;12.30;99.90;;;;;;6133171;23;20420;-83
2022/10/25 07:46:08;;;;;;;2.83;2.53;;;12.30;99.90;;;;;;6133364;23;20418;-84
2022/10/25 07:48:35;;;;;;;2.20;2.10;;;12.40;99.90;;;;;;6131736;23;20442;-83
2022/10/25 07:51:04;;;;;;;3.03;2.10;;;12.40;99.90;;;;;;6130860;23;20414;-83
2022/10/25 07:53:31;;;;;;;3.60;3.30;;;12.50;99.90;;;;;;6130684;23;20429;-83
2022/10/25 07:55:57;;;;;;;2.97;2.77;;;12.60;99.90;;;;;;6130922;23;20410;-83
2022/10/25 07:58:24;;;;;;;2.50;2.30;;;12.60;99.90;;;;;;6130604;23;20808;-83
2022/10/25 08:00:51;;;;;;;2.20;1.80;;;12.70;99.90;;;;;;6130918;23;20422;-83
2022/10/25 08:03:19;;;;;;;2.60;1.97;;;12.80;99.90;;;;;;6131889;23;20415;-83
2022/10/25 08:05:47;;;;;;;2.40;2.30;;;12.90;99.90;;;;;;6131127;23;20586;-83
2022/10/25 08:08:15;;;;;;;2.60;2.40;;;12.80;99.90;;;;;;6131671;23;20428;-83
2022/10/25 08:10:43;;;;;;;4.37;2.03;;;13.00;99.90;;;;;;6132128;23;20828;-84
2022/10/25 08:13:10;;;;;;;2.20;2.03;;;13.00;99.90;;;;;;6132608;23;20411;-83
2022/10/25 08:15:37;;;;;;;3.20;2.70;;;13.10;99.90;;;;;;6132291;23;20418;-83
2022/10/25 08:18:06;;;;;;;2.97;2.13;;;13.10;99.90;;;;;;6131707;23;20448;-83
2022/10/25 08:20:34;;;;;;;2.57;2.10;;;13.20;99.90;;;;;;6130724;23;20930;-83
2022/10/25 08:23:01;;;;;;;2.67;1.93;;;13.30;99.90;;;;;;6133428;23;20417;-83
2022/10/25 08:25:28;;;;;;;3.80;2.30;;;13.40;99.90;;;;;;6133669;23;20407;-83
2022/10/25 08:27:55;;;;;;;1.97;1.87;;;13.40;99.90;;;;;;6133489;23;20458;-83
2022/10/25 08:30:22;;;;;;;6.87;2.23;;;13.40;99.90;;;;;;6133410;23;20415;-83
2022/10/25 08:32:49;;;;;;;2.23;2.03;;;13.40;99.90;;;;;;6133348;23;20411;-83
2022/10/25 08:35:15;;;;;;;2.00;1.80;;;13.40;99.90;;;;;;6132779;23;20423;-83
2022/10/25 08:37:43;;;;;;;1.77;1.57;;;13.50;99.90;;;;;;6133599;23;20454;-83
2022/10/25 08:40:17;;;;;;;2.10;1.93;;;13.60;99.90;;;;;;6133718;23;20485;-84
2022/10/25 08:42:56;;;;;;;1.77;1.67;;;13.60;99.90;;;;;;6133245;23;20396;-84
2022/10/25 08:45:29;;;;;;;5.60;2.30;;;13.70;99.90;;;;;;6133171;23;20395;-84
2022/10/25 08:47:57;;;;;;;3.27;1.60;;;13.90;99.90;;;;;;6133720;23;20439;-83
2022/10/25 08:50:30;;;;;;;3.47;2.17;;;14.00;99.90;;;;;;6132743;23;20418;-84
2022/10/25 08:53:01;;;;;;;3.53;1.60;;;14.10;99.90;;;;;;6132859;23;20406;-84
2022/10/25 08:55:32;;;;;;;2.33;1.40;;;14.10;99.90;;;;;;6134187;23;20396;-84
2022/10/25 08:58:00;;;;;;;1.80;1.70;;;14.20;99.90;;;;;;6132073;23;20462;-83
2022/10/25 09:00:32;;;;;;;2.20;2.00;;;14.20;99.90;;;;;;6133128;23;20422;-83
2022/10/25 09:03:01;;;;;;;2.20;1.67;;;14.20;99.90;;;;;;6133380;23;20392;-84
2022/10/25 09:05:38;;;;;;;4.13;1.70;;;14.30;99.90;;;;;;6135728;23;20416;-84
2022/10/25 09:08:26;;;;;;;1.30;1.20;;;14.40;99.90;;;;;;6137373;23;20431;-86
2022/10/25 09:11:00;;;;;;;2.20;1.90;;;14.50;99.90;;;;;;6136377;23;20398;-86
2022/10/25 09:13:37;;;;;;;3.20;1.90;;;14.60;99.90;;;;;;6136525;23;20422;-85
2022/10/25 09:16:15;;;;;;;3.03;1.70;;;14.80;99.90;;;;;;6137597;23;20395;-85
2022/10/25 09:18:47;;;;;;;2.50;1.60;;;14.90;99.90;;;;;;6136261;23;20448;-86
2022/10/25 09:21:18;;;;;;;4.93;1.87;;;15.00;99.90;;;;;;6136275;23;20392;-85
2022/10/25 09:24:00;;;;;;;1.43;1.30;;;15.10;99.90;;;;;;6136985;23;20394;-86
2022/10/25 09:26:39;;;;;;;1.70;1.60;;;15.20;99.90;;;;;;6136163;23;20396;-85
2022/10/25 09:29:13;;;;;;;2.27;1.70;;;15.30;99.90;;;;;;6134825;23;20388;-84
2022/10/25 09:31:46;;;;;;;2.20;1.40;;;15.20;99.90;;;;;;6134371;23;20864;-84
2022/10/25 09:34:14;;;;;;;2.63;2.13;;;15.30;99.90;;;;;;6135156;23;20396;-85
2022/10/25 09:36:45;;;;;;;1.97;1.80;;;15.30;99.90;;;;;;6135611;23;20745;-85
2022/10/25 09:39:20;;;;;;;2.60;1.33;;;15.40;99.90;;;;;;6133795;23;20432;-85
2022/10/25 09:41:51;;;;;;;1.80;1.00;;;15.40;99.90;;;;;;6134499;23;20768;-85
2022/10/25 09:44:29;;;;;;;1.57;1.47;;;15.50;99.90;;;;;;6134566;23;20396;-85
2022/10/25 09:47:01;;;;;;;2.30;1.33;;;15.50;99.90;;;;;;6133823;23;20959;-85
2022/10/25 09:49:35;;;;;;;2.50;1.83;;;15.60;99.90;;;;;;6134449;23;20393;-85
2022/10/25 09:52:13;;;;;;;1.20;1.10;;;15.60;99.90;;;;;;6134945;23;20718;-84
2022/10/25 09:54:49;;;;;;;1.37;1.30;;;15.60;99.90;;;;;;6135042;23;20396;-84
2022/10/25 09:57:15;;;;;;;2.67;2.07;;;15.70;99.90;;;;;;6134182;23;20432;-85
2022/10/25 09:59:50;;;;;;;1.70;1.37;;;15.70;99.90;;;;;;6133839;23;20447;-85
2022/10/25 10:02:21;;;;;;;4.90;1.47;;;15.70;99.90;;;;;;6136108;23;20387;-84
2022/10/25 10:04:49;;;;;;;5.83;1.60;;;15.80;99.90;;;;;;6133942;23;20400;-85
2022/10/25 10:07:20;;;;;;;2.67;1.50;;;15.80;99.90;;;;;;6135011;23;20436;-85
2022/10/25 10:09:50;;;;;;;1.23;1.13;;;15.80;99.90;;;;;;6135358;23;20399;-85
2022/10/25 10:12:23;;;;;;;2.90;1.53;;;16.00;99.90;;;;;;6138479;23;20402;-84
2022/10/25 10:14:56;;;;;;;0.90;0.90;;;16.10;99.90;;;;;;6139218;23;20403;-85
2022/10/25 10:17:24;;;;;;;1.30;1.20;;;16.20;99.90;;;;;;6134390;23;20432;-84
2022/10/25 10:20:09;;;;;;;1.43;1.33;;;16.30;99.90;;;;;;6134258;23;20526;-84
2022/10/25 10:22:37;;;;;;;1.67;1.57;;;16.20;99.90;;;;;;6135410;23;20424;-84
2022/10/25 10:25:13;;;;;;;1.97;1.73;;;16.40;99.90;;;;;;6135420;23;20418;-84
2022/10/25 10:27:41;;;;;;;2.20;1.33;;;16.50;99.90;;;;;;6135721;23;20435;-85
2022/10/25 10:30:18;;;;;;;3.90;1.50;;;16.50;99.90;;;;;;6135759;23;20412;-84
2022/10/25 10:32:45;;;;;;;1.13;1.03;;;16.50;99.90;;;;;;6134767;23;20388;-84
2022/10/25 10:35:27;;;;;;;2.60;1.50;;;16.60;99.90;;;;;;6135710;23;20431;-83
2022/10/25 10:38:10;;;;;;;5.17;1.80;;;16.90;99.90;;;;;;6134491;23;20464;-84
2022/10/25 10:40:38;;;;;;;7.70;1.70;;;17.40;99.90;;;;;;6134804;23;20410;-84
2022/10/25 10:43:23;;;;;;;2.93;2.07;;;17.90;99.90;;;;;;6134999;23;20413;-84
2022/10/25 10:45:51;;;;;;;2.20;1.40;;;18.30;99.90;;;;;;6135112;23;20400;-85
2022/10/25 10:48:20;;;;;;;1.93;1.17;;;18.80;99.90;;;;;;6134288;23;20456;-85
2022/10/25 10:50:49;;;;;;;1.53;1.40;;;19.40;99.90;;;;;;6135243;23;20439;-85
2022/10/25 10:53:20;;;;;;;1.70;1.27;;;19.90;99.90;;;;;;6135834;23;20414;-84
2022/10/25 10:55:50;;;;;;;1.97;1.30;;;20.30;99.90;;;;;;6136039;23;20388;-85
2022/10/25 10:58:22;;;;;;;1.30;1.20;;;20.50;99.90;;;;;;6135524;23;20429;-85
2022/10/25 11:00:51;;;;;;;2.23;1.03;;;20.80;99.90;;;;;;6135288;23;20399;-85
2022/10/25 11:03:37;;;;;;;2.03;1.13;;;20.80;99.90;;;;;;6135313;23;20422;-85
2022/10/25 11:06:06;;;;;;;1.40;1.30;;;20.90;99.90;;;;;;6134705;23;20420;-85
2022/10/25 11:08:34;;;;;;;1.57;1.30;;;21.20;99.90;;;;;;6133463;23;20428;-85
2022/10/25 11:11:15;;;;;;;2.27;1.10;;;21.70;99.90;;;;;;6134114;23;20414;-85
2022/10/25 11:13:48;;;;;;;1.60;1.20;;;22.10;99.90;;;;;;6135387;23;20391;-84
2022/10/25 11:16:32;;;;;;;2.13;1.10;;;22.70;99.90;;;;;;6135405;23;20772;-85
2022/10/25 11:19:12;;;;;;;2.47;1.30;;;23.10;99.90;;;;;;6134599;23;20438;-85
2022/10/25 11:22:08;;;;;;;4.50;1.30;;;23.30;98.90;;;;;;6136610;23;20414;-84
2022/10/25 11:24:42;;;;;;;0.93;0.93;;;23.50;99.90;;;;;;6136397;23;20399;-85
2022/10/25 11:27:19;;;;;;;1.37;1.27;;;23.70;99.90;;;;;;6136243;23;20431;-85
2022/10/25 11:30:03;;;;;;;2.83;1.00;;;23.80;99.40;;;;;;6136734;23;20878;-85
2022/10/25 11:33:12;;;;;;;2.37;0.90;;;23.90;96.90;;;;;;6137437;23;20459;-85
2022/10/25 11:35:48;;;;;;;4.43;1.97;;;24.00;97.80;;;;;;6137899;23;20502;-86
2022/10/25 11:38:22;;;;;;;1.20;0.97;;;24.30;99.90;;;;;;6137871;23;21010;-85
2022/10/25 11:41:01;;;;;;;1.40;1.30;;;24.50;98.60;;;;;;6138265;23;20427;-86
2022/10/25 11:43:45;;;;;;;1.30;1.20;;;25.00;99.90;;;;;;6137717;23;20400;-84
2022/10/25 11:46:18;;;;;;;1.03;0.90;;;25.50;99.90;;;;;;6137504;23;20396;-85
2022/10/25 11:58:39;;;;;;;2.13;0.90;;;25.90;97.00;;;;;;6093534;23;20421;-87
2022/10/25 12:01:37;;;;;;;1.17;0.90;;;26.30;92.60;;;;;;6154751;23;20475;-87
2022/10/25 12:04:44;;;;;;;3.40;1.10;;;25.80;91.00;;;;;;6114649;23;20435;-86
2022/10/25 12:07:47;;;;;;;1.13;0.83;;;25.80;94.60;;;;;;6154854;23;20494;-87
2022/10/25 12:10:47;;;;;;;;;;;;;;;;;;;;;
2022/10/25 12:17:06;;;;;;;2.03;1.33;;;26.40;90.60;;;;;;6035445;23;20405;-86
2022/10/25 12:37:45;;;;;;;;;;;;;;;;;;;;;
2022/10/25 12:47:35;;;;;;;1.27;1.17;;;26.60;85.60;;;;;;6006427;23;21156;-87
2022/10/25 12:57:46;;;;;;;1.23;1.17;;;27.30;85.50;;;;;;6073028;23;20412;-87
2022/10/25 13:03:51;;;;;;;1.83;1.73;;;27.60;83.30;;;;;;6152092;23;20486;-86
2022/10/25 13:06:47;;;;;;;1.90;0.90;;;27.70;85.00;;;;;;6155196;23;20471;-86
2022/10/25 13:09:41;;;;;;;1.23;1.00;;;27.80;80.50;;;;;;6155484;23;20540;-86
2022/10/25 13:12:21;;;;;;;3.20;0.80;;;27.80;75.40;;;;;;6156550;23;20827;-86
2022/10/25 13:15:23;;;;;;;0.83;0.67;;;27.50;70.60;;;;;;6174860;23;20414;-86
2022/10/25 13:18:48;;;;;;;1.30;0.77;;;27.40;73.80;;;;;;6146586;23;20481;-87
2022/10/25 13:24:36;;;;;;;6.57;2.80;;;28.20;70.70;;;;;;6155687;23;20466;-86
2022/10/25 13:27:26;;;;;;;3.07;1.40;;;29.00;69.80;;;;;;6155962;23;21014;-86
2022/10/25 13:30:04;;;;;;;2.40;1.13;;;29.80;67.70;;;;;;6138531;23;20448;-86
2022/10/25 13:32:38;;;;;;;0.93;0.83;;;28.90;63.30;;;;;;6156141;23;20426;-86
2022/10/25 13:35:50;;;;;;;1.90;1.80;;;28.50;66.10;;;;;;6156371;23;20404;-86
2022/10/25 13:38:24;;;;;;;1.63;1.20;;;27.90;65.10;;;;;;6136206;23;20444;-85
2022/10/25 13:41:06;;;;;;;2.37;1.20;;;27.30;68.10;;;;;;6183283;23;20416;-87
2022/10/25 13:43:34;;;;;;;2.40;1.90;;;27.00;68.00;;;;;;6181414;23;20391;-85
2022/10/25 13:46:01;;;;;;;2.00;1.10;;;26.50;66.50;;;;;;6157838;23;20415;-85
2022/10/25 13:48:31;;;;;;;2.53;0.93;;;25.90;67.60;;;;;;6155995;23;20525;-85
2022/10/25 13:51:09;;;;;;;1.40;0.77;;;25.40;68.70;;;;;;6156475;23;20443;-86
2022/10/25 13:53:40;;;;;;;1.30;0.87;;;24.80;69.70;;;;;;6156758;23;20453;-86
2022/10/25 13:56:13;;;;;;;2.03;1.07;;;24.60;71.40;;;;;;6156416;23;20423;-86
2022/10/25 13:58:44;;;;;;;0.80;0.77;;;24.30;72.70;;;;;;6156650;23;20431;-85
2022/10/25 14:01:56;;;;;;;0.80;0.80;;;23.90;74.10;;;;;;6156459;23;20399;-86
2022/10/25 14:04:39;;;;;;;1.50;1.07;;;24.20;73.80;;;;;;6156956;23;20418;-85